createdAt,value
2023-01-22T00:03:44.694Z,53.70
2023-01-22T00:07:54.056Z,58.80
2023-01-22T00:12:01.801Z,50.10
2023-01-22T00:16:12.036Z,48.40
2023-01-22T00:20:20.941Z,48.60
2023-01-22T00:24:29.128Z,43.80
2023-01-22T00:28:37.959Z,53.70
2023-01-22T00:32:46.947Z,55.30
2023-01-22T00:36:55.968Z,57.50
2023-01-22T00:41:05.906Z,53.80
2023-01-22T00:45:15.856Z,48.30
2023-01-22T00:49:23.707Z,45.20
2023-01-22T00:53:31.281Z,49.30
2023-01-22T00:57:39.786Z,59.00
2023-01-22T01:01:47.882Z,55.70
2023-01-22T01:05:55.919Z,55.30
2023-01-22T01:10:03.773Z,43.30
2023-01-22T01:14:12.831Z,52.00
2023-01-22T01:18:22.527Z,47.70
2023-01-22T01:22:30.546Z,57.90
2023-01-22T01:26:37.994Z,54.20
2023-01-22T01:30:46.615Z,50.90
2023-01-22T01:34:54.491Z,43.30
2023-01-22T01:39:03.567Z,49.90
2023-01-22T01:43:17.019Z,46.40
2023-01-22T01:47:31.478Z,55.00
2023-01-22T01:51:39.839Z,58.80
2023-01-22T01:55:47.604Z,47.50
2023-01-22T01:59:56.066Z,52.80
2023-01-22T02:04:04.318Z,50.50
2023-01-22T02:08:12.620Z,61.60
2023-01-22T02:12:20.505Z,56.70
2023-01-22T02:16:28.600Z,61.20
2023-01-22T02:20:38.577Z,49.40
2023-01-22T02:24:46.336Z,49.00
2023-01-22T02:28:53.894Z,54.90
2023-01-22T02:33:01.995Z,61.40
2023-01-22T02:37:11.358Z,63.00
2023-01-22T02:41:19.504Z,47.90
2023-01-22T02:45:27.629Z,50.20
2023-01-22T02:49:35.444Z,45.90
2023-01-22T02:53:42.881Z,44.40
2023-01-22T02:57:50.852Z,50.70
2023-01-22T03:01:58.586Z,49.70
2023-01-22T03:06:07.061Z,46.70
2023-01-22T03:10:18.915Z,43.00
2023-01-22T03:14:43.852Z,50.40
2023-01-22T03:19:08.601Z,48.20
2023-01-22T03:23:16.604Z,56.50
2023-01-22T03:27:25.977Z,54.60
2023-01-22T03:31:34.055Z,45.80
2023-01-22T03:35:42.181Z,41.70
2023-01-22T03:39:50.147Z,45.60
2023-01-22T03:43:59.171Z,41.60
2023-01-22T03:48:07.623Z,40.10
2023-01-22T03:52:15.877Z,54.30
2023-01-22T03:56:26.467Z,53.70
2023-01-22T04:00:34.256Z,52.40
2023-01-22T04:04:44.711Z,39.40
2023-01-22T04:08:54.758Z,42.60
2023-01-22T04:13:02.486Z,50.40
2023-01-22T04:17:10.984Z,51.40
2023-01-22T04:21:19.165Z,53.40
2023-01-22T04:25:27.729Z,51.70
2023-01-22T04:29:35.318Z,47.10
2023-01-22T04:33:43.385Z,45.40
2023-01-22T04:37:51.375Z,44.50
2023-01-22T04:41:59.680Z,44.60
2023-01-22T04:46:08.284Z,52.50
2023-01-22T04:50:18.373Z,52.90
2023-01-22T04:54:26.618Z,54.00
2023-01-22T04:58:34.374Z,49.90
2023-01-22T05:02:43.960Z,44.60
2023-01-22T05:06:51.958Z,43.40
2023-01-22T05:11:04.132Z,44.60
2023-01-22T05:15:23.576Z,55.00
2023-01-22T05:19:32.823Z,58.70
2023-01-22T05:23:40.918Z,54.60
2023-01-22T05:27:48.498Z,45.20
2023-01-22T05:31:56.029Z,44.40
2023-01-22T05:36:05.462Z,44.70
2023-01-22T05:40:14.931Z,57.80
2023-01-22T05:44:22.848Z,52.80
2023-01-22T05:48:30.418Z,57.40
2023-01-22T05:52:38.422Z,45.90
2023-01-22T05:56:45.592Z,42.50
2023-01-22T06:00:55.001Z,41.70
2023-01-22T06:05:03.260Z,38.10
2023-01-22T06:09:12.699Z,49.40
2023-01-22T06:13:20.404Z,52.20
2023-01-22T06:17:28.017Z,34.80
2023-01-22T06:21:37.097Z,31.10
2023-01-22T06:25:44.531Z,35.50
2023-01-22T06:29:52.102Z,32.90
2023-01-22T06:34:00.097Z,29.80
2023-01-22T06:38:08.993Z,37.50
2023-01-22T06:42:17.607Z,37.20
2023-01-22T06:46:25.350Z,36.50
2023-01-22T06:50:33.051Z,29.60
2023-01-22T06:54:40.466Z,26.10
2023-01-22T06:58:48.280Z,24.10
2023-01-22T07:02:57.536Z,20.90
2023-01-22T07:07:05.013Z,23.00
2023-01-22T07:11:15.694Z,28.00
2023-01-22T07:15:23.105Z,22.10
2023-01-22T07:19:30.846Z,18.30
2023-01-22T07:23:39.376Z,20.30
2023-01-22T07:27:47.752Z,20.60
2023-01-22T07:31:55.550Z,20.30
2023-01-22T07:36:03.147Z,22.40
2023-01-22T07:40:13.533Z,24.80
2023-01-22T07:44:21.941Z,27.30
2023-01-22T07:48:29.818Z,23.50
2023-01-22T07:52:37.374Z,21.70
2023-01-22T07:56:45.643Z,22.40
2023-01-22T08:00:54.180Z,21.80
2023-01-22T08:05:05.310Z,22.00
2023-01-22T08:09:15.682Z,24.50
2023-01-22T08:13:23.566Z,27.40
2023-01-22T08:17:31.279Z,27.10
2023-01-22T08:21:39.165Z,25.70
2023-01-22T08:25:47.110Z,25.30
2023-01-22T08:29:56.245Z,22.80
2023-01-22T08:34:04.437Z,24.90
2023-01-22T08:38:12.546Z,35.40
2023-01-22T08:42:20.001Z,36.00
2023-01-22T08:46:28.051Z,37.70
2023-01-22T08:50:35.946Z,30.00
2023-01-22T08:54:45.110Z,28.60
2023-01-22T08:58:53.593Z,29.20
2023-01-22T09:03:02.324Z,33.20
2023-01-22T09:07:11.216Z,41.20
2023-01-22T09:11:19.176Z,47.70
2023-01-22T09:15:27.588Z,41.80
2023-01-22T09:19:35.425Z,33.90
2023-01-22T09:23:43.353Z,36.60
2023-01-22T09:27:51.324Z,33.70
2023-01-22T09:32:00.131Z,33.80
2023-01-22T09:36:12.941Z,41.60
2023-01-22T09:40:27.535Z,43.50
2023-01-22T09:44:39.307Z,37.00
2023-01-22T09:48:49.772Z,30.30
2023-01-22T09:53:00.442Z,29.10
2023-01-22T09:57:14.846Z,30.30
2023-01-22T10:01:28.163Z,27.70
2023-01-22T10:05:39.212Z,31.40
2023-01-22T10:09:51.024Z,29.30
2023-01-22T10:14:00.366Z,28.80
2023-01-22T10:18:16.652Z,24.90
2023-01-22T10:22:26.879Z,26.70
2023-01-22T10:26:39.467Z,26.10
2023-01-22T10:30:51.742Z,30.20
2023-01-22T10:35:06.347Z,30.00
2023-01-22T10:39:16.125Z,27.20
2023-01-22T10:43:25.953Z,27.30
2023-01-22T10:47:33.817Z,25.00
2023-01-22T10:51:44.259Z,24.80
2023-01-22T10:55:57.111Z,33.00
2023-01-22T11:00:22.522Z,28.10
2023-01-22T11:04:31.739Z,24.70
2023-01-22T11:08:46.515Z,20.50
2023-01-22T11:12:59.745Z,21.10
2023-01-22T11:17:14.986Z,19.60
2023-01-22T11:21:24.885Z,21.00
2023-01-22T11:25:38.114Z,24.10
2023-01-22T11:30:00.992Z,21.10
2023-01-22T11:34:24.952Z,21.60
2023-01-22T11:38:38.893Z,17.30
2023-01-22T11:42:57.066Z,19.70
2023-01-22T11:47:18.666Z,18.10
2023-01-22T11:51:33.080Z,15.50
2023-01-22T11:55:54.912Z,21.80
2023-01-22T12:00:27.779Z,21.80
2023-01-22T12:05:10.252Z,20.10
2023-01-22T12:09:22.264Z,15.60
2023-01-22T12:14:02.897Z,15.50
2023-01-22T12:18:28.232Z,16.00
2023-01-22T12:22:39.836Z,23.80
2023-01-22T12:26:50.977Z,22.90
2023-01-22T12:31:02.704Z,20.50
2023-01-22T12:35:18.510Z,16.10
2023-01-22T12:39:29.883Z,18.30
2023-01-22T12:43:48.312Z,19.00
2023-01-22T12:48:00.229Z,20.10
2023-01-22T12:52:22.048Z,23.80
2023-01-22T12:56:35.405Z,31.90
2023-01-22T13:00:44.892Z,30.30
2023-01-22T13:04:53.121Z,25.80
2023-01-22T13:09:00.937Z,25.80
2023-01-22T13:13:21.963Z,21.20
2023-01-22T13:17:31.579Z,22.10
2023-01-22T13:21:40.153Z,20.80
2023-01-22T13:25:47.877Z,25.50
2023-01-22T13:30:06.967Z,30.40
2023-01-22T13:34:18.214Z,33.80
2023-01-22T13:38:27.969Z,28.40
2023-01-22T13:42:37.142Z,28.00
2023-01-22T13:46:44.673Z,30.20
2023-01-22T13:50:58.176Z,24.30
2023-01-22T13:55:09.001Z,35.20
2023-01-22T13:59:24.446Z,38.80
2023-01-22T14:03:31.861Z,37.20
2023-01-22T14:07:41.318Z,26.40
2023-01-22T14:11:50.127Z,25.30
2023-01-22T14:16:07.092Z,24.80
2023-01-22T14:20:16.344Z,33.70
2023-01-22T14:24:24.213Z,35.70
2023-01-22T14:28:32.811Z,32.30
2023-01-22T14:32:41.146Z,30.50
2023-01-22T14:36:49.696Z,33.50
2023-01-22T14:40:58.115Z,30.70
2023-01-22T14:45:06.798Z,24.30
2023-01-22T14:49:14.131Z,33.70
2023-01-22T14:53:22.447Z,31.00
2023-01-22T14:57:30.495Z,28.90
2023-01-22T15:01:37.887Z,32.40
2023-01-22T15:05:45.623Z,26.50
2023-01-22T15:09:53.214Z,27.80
2023-01-22T15:14:01.748Z,21.90
2023-01-22T15:18:11.821Z,26.20
2023-01-22T15:22:23.009Z,30.90
2023-01-22T15:26:35.212Z,33.90
2023-01-22T15:30:46.918Z,27.90
2023-01-22T15:34:54.883Z,27.00
2023-01-22T15:39:02.995Z,28.20
2023-01-22T15:43:10.968Z,35.80
2023-01-22T15:47:19.080Z,37.90
2023-01-22T15:51:27.433Z,37.10
2023-01-22T15:55:35.256Z,33.90
2023-01-22T15:59:44.017Z,33.80
2023-01-22T16:03:51.892Z,30.50
2023-01-22T16:07:59.551Z,31.00
2023-01-22T16:12:09.266Z,37.70
2023-01-22T16:16:20.540Z,40.70
2023-01-22T16:20:28.629Z,34.60
2023-01-22T16:24:36.179Z,29.20
2023-01-22T16:28:44.783Z,33.70
2023-01-22T16:32:53.789Z,29.60
2023-01-22T16:37:01.311Z,38.80
2023-01-22T16:41:29.177Z,40.30
2023-01-22T16:45:38.015Z,36.80
2023-01-22T16:49:46.101Z,33.70
2023-01-22T16:53:53.813Z,33.30
2023-01-22T16:58:01.395Z,33.80
2023-01-22T17:02:16.031Z,37.50
2023-01-22T17:06:27.943Z,37.20
2023-01-22T17:10:35.874Z,39.30
2023-01-22T17:14:46.565Z,31.80
2023-01-22T17:18:56.343Z,32.90
2023-01-22T17:23:04.337Z,33.40
2023-01-22T17:27:18.589Z,38.10
2023-01-22T17:31:27.190Z,39.90
2023-01-22T17:35:35.448Z,44.60
2023-01-22T17:39:46.117Z,38.90
2023-01-22T17:43:56.356Z,40.20
2023-01-22T17:48:04.627Z,38.30
2023-01-22T17:52:13.306Z,37.60
2023-01-22T17:56:23.054Z,41.30
2023-01-22T18:00:31.830Z,41.70
2023-01-22T18:04:40.247Z,39.70
2023-01-22T18:08:48.249Z,41.80
2023-01-22T18:12:56.267Z,34.90
2023-01-22T18:17:04.599Z,33.50
2023-01-22T18:21:16.696Z,31.80
2023-01-22T18:25:24.363Z,36.80
2023-01-22T18:29:32.215Z,40.10
2023-01-22T18:33:40.923Z,39.30
2023-01-22T18:37:51.771Z,38.30
2023-01-22T18:41:59.834Z,39.00
2023-01-22T18:46:11.214Z,37.60
2023-01-22T18:50:20.187Z,42.00
2023-01-22T18:54:29.326Z,45.20
2023-01-22T18:58:38.171Z,43.70
2023-01-22T19:02:46.131Z,39.60
2023-01-22T19:06:57.694Z,38.40
2023-01-22T19:11:07.118Z,41.10
2023-01-22T19:15:16.734Z,47.10
2023-01-22T19:19:25.472Z,45.60
2023-01-22T19:23:34.310Z,41.90
2023-01-22T19:27:41.823Z,39.00
2023-01-22T19:31:52.412Z,32.70
2023-01-22T19:36:00.453Z,33.80
2023-01-22T19:40:14.059Z,40.60
2023-01-22T19:44:22.130Z,43.40
2023-01-22T19:48:30.060Z,46.00
2023-01-22T19:52:37.988Z,40.20
2023-01-22T19:56:46.552Z,35.10
2023-01-22T20:00:58.170Z,34.30
2023-01-22T20:05:06.637Z,41.80
2023-01-22T20:09:17.782Z,32.70
2023-01-22T20:13:26.098Z,49.60
2023-01-22T20:17:37.491Z,62.70
2023-01-22T20:21:45.301Z,54.40
2023-01-22T20:25:53.657Z,57.20
2023-01-22T20:30:01.617Z,79.30
2023-01-22T20:34:09.829Z,74.80
2023-01-22T20:38:18.171Z,65.20
2023-01-22T20:42:26.315Z,78.30
2023-01-22T20:46:34.166Z,69.80
2023-01-22T20:50:44.785Z,66.10
2023-01-22T20:55:01.511Z,56.10
2023-01-22T20:59:11.687Z,58.40
2023-01-22T21:03:19.962Z,47.20
2023-01-22T21:07:27.943Z,49.40
2023-01-22T21:11:37.280Z,48.80
2023-01-22T21:15:45.377Z,57.60
2023-01-22T21:19:53.029Z,49.70
2023-01-22T21:24:01.493Z,45.90
2023-01-22T21:28:10.854Z,52.50
2023-01-22T21:32:20.511Z,44.30
2023-01-22T21:36:28.016Z,43.30
2023-01-22T21:40:35.709Z,41.40
2023-01-22T21:45:00.928Z,49.20
2023-01-22T21:49:21.462Z,47.70
2023-01-22T21:53:29.732Z,44.60
2023-01-22T21:57:39.262Z,40.30
2023-01-22T22:01:50.339Z,35.90
2023-01-22T22:06:02.355Z,34.90
2023-01-22T22:10:15.014Z,42.20
2023-01-22T22:14:23.029Z,48.30
2023-01-22T22:18:30.650Z,46.60
2023-01-22T22:22:39.144Z,43.70
2023-01-22T22:26:47.827Z,38.60
2023-01-22T22:31:03.011Z,42.60
2023-01-22T22:35:11.828Z,39.40
2023-01-22T22:39:19.641Z,39.80
2023-01-22T22:43:27.496Z,37.40
2023-01-22T22:47:38.010Z,41.90
2023-01-22T22:51:46.757Z,45.10
2023-01-22T22:55:54.452Z,46.50
2023-01-22T23:00:04.607Z,43.50
2023-01-22T23:04:12.834Z,39.80
2023-01-22T23:08:20.071Z,40.10
2023-01-22T23:12:28.451Z,41.90
2023-01-22T23:16:37.630Z,44.20
2023-01-22T23:20:45.882Z,43.60
2023-01-22T23:24:54.753Z,49.80
2023-01-22T23:29:03.965Z,46.80
2023-01-22T23:33:12.637Z,44.10
2023-01-22T23:37:20.648Z,43.20
2023-01-22T23:41:28.819Z,40.40
2023-01-22T23:45:40.817Z,38.80
2023-01-22T23:49:48.706Z,47.70
2023-01-22T23:53:57.052Z,52.60
2023-01-22T23:58:04.793Z,47.60
